Flight Track Log - Related Links

Times and Time Zones

All times are in EDT time to prevent confusion due to time zone crossing. See the ASQ6041 flight status page for this flight to view local times or setup timezone preferences in your user account.

Time Position Orientation Groundspeed Altitude Reporting Facility
EDT Latitude Longitude Course Direction KTS MPH feet Rate Location/Type
Wed 07:07:15 AM 33.5531 -86.7733 245° Southwest 146 168 1,300  Level Atlanta Center
Wed 07:08:17 AM 33.5353 -86.8200 245° Southwest 164 189 2,800 2,115 Climbing Atlanta Center
Wed 07:09:17 AM 33.5742 -86.8611 319° Northwest 173 199 5,600 2,250 Climbing Atlanta Center
Wed 07:10:17 AM 33.6336 -86.8158 32° Northeast 149 171 7,300 1,600 Climbing Atlanta Center
Wed 07:11:17 AM 33.6917 -86.7428 46° Northeast 227 261 8,800 1,650 Climbing Atlanta Center
Wed 07:12:17 AM 33.7536 -86.6697 44° Northeast 263 303 10,600 1,350 Climbing Atlanta Center
Wed 07:13:17 AM 33.8200 -86.5867 46° Northeast 308 354 11,500 950 Climbing Atlanta Center
Wed 07:14:17 AM 33.8950 -86.4939 46° Northeast 354 407 12,500 1,100 Climbing Atlanta Center
Wed 07:15:17 AM 33.9719 -86.4008 45° Northeast 375 432 13,700 1,250 Climbing Atlanta Center
Wed 07:16:17 AM 34.0489 -86.3053 46° Northeast 387 445 15,000 1,150 Climbing Atlanta Center
Wed 07:17:17 AM 34.1258 -86.2069 47° Northeast 392 451 16,000 1,000 Climbing Atlanta Center
Wed 07:18:17 AM 34.2069 -86.1061 46° Northeast 392 451 17,000 1,000 Climbing Atlanta Center
Wed 07:19:17 AM 34.2856 -86.0097 45° Northeast 397 457 18,000 1,150 Climbing Atlanta Center
Wed 07:20:17 AM 34.3686 -85.9061 46° Northeast 402 463 19,300 1,300 Climbing Atlanta Center
Wed 07:21:17 AM 34.4475 -85.8069 46° Northeast 407 468 20,600 1,250 Climbing Atlanta Center
Wed 07:22:17 AM 34.5303 -85.7056 45° Northeast 407 468 21,800 1,200 Climbing Atlanta Center
Wed 07:23:17 AM 34.6108 -85.6011 47° Northeast 413 475 23,000 1,250 Climbing Atlanta Center
Wed 07:24:17 AM 34.6914 -85.4989 46° Northeast 413 475 24,300 1,250 Climbing Atlanta Center
Wed 07:25:17 AM 34.7739 -85.3942 46° Northeast 420 483 25,500 1,200 Climbing Atlanta Center
Wed 07:26:17 AM 34.8544 -85.2917 46° Northeast 420 483 26,700 1,200 Climbing Atlanta Center
Wed 07:27:17 AM 34.9367 -85.1864 46° Northeast 420 483 27,900 1,200 Climbing Atlanta Center
Wed 07:28:17 AM 35.0353 -85.1372 22° Northeast 394 453 29,100 1,200 Climbing Atlanta Center
Wed 07:29:17 AM 35.1400 -85.1081 13° North 374 430 30,300 1,200 Climbing Atlanta Center
Wed 07:30:17 AM 35.2403 -85.0839 11° North 374 430 31,500 1,250 Climbing Atlanta Center
Wed 07:31:17 AM 35.3428 -85.0572 12° North 374 430 32,800 1,250 Climbing Atlanta Center
Wed 07:32:17 AM 35.4450 -85.0331 11° North 369 425 34,000 1,200 Climbing Atlanta Center
Wed 07:33:17 AM 35.5433 -85.0086 11° North 369 425 35,200 1,000 Climbing Atlanta Center
Wed 07:34:17 AM 35.6375 -84.9842 12° North 359 413 36,000 400 Climbing Atlanta Center
Wed 07:35:17 AM 35.7314 -84.9622 11° North 354 407 36,000  Level Atlanta Center
Wed 07:36:17 AM 35.8403 -84.9303 13° North 372 428 36,000  Level Atlanta Center
Wed 07:37:17 AM 35.9594 -84.9006 11° North 392 451 36,000  Level Atlanta Center
Wed 07:39:37 AM 36.2186 -84.8328 12° North 430 495 36,000  Level Indianapolis Center
Wed 07:40:39 AM 36.3403 -84.8011 12° North 443 510 36,000  Level Indianapolis Center
Wed 07:41:40 AM 36.4650 -84.7681 12° North 455 524 36,000  Level Indianapolis Center
Wed 07:42:41 AM 36.6158 -84.7228 14° North 464 534 36,000  Level Indianapolis Center
Wed 07:43:43 AM 36.7411 -84.6856 13° North 463 533 36,000  Level Indianapolis Center
Wed 07:44:44 AM 36.8669 -84.6483 13° North 463 533 36,000  Level Indianapolis Center
Wed 07:45:46 AM 36.9925 -84.6114 13° North 464 534 36,000  Level Indianapolis Center
Wed 07:46:47 AM 37.1117 -84.5758 13° North 463 533 36,000  Level Indianapolis Center
Wed 07:47:49 AM 37.2369 -84.5381 13° North 461 531 36,000  Level Indianapolis Center
Wed 07:48:50 AM 37.3819 -84.4958 13° North 457 526 36,000  Level Indianapolis Center
Wed 07:49:52 AM 37.5056 -84.4581 14° North 456 525 36,000  Level Indianapolis Center
Wed 07:50:53 AM 37.6303 -84.4208 13° North 458 527 36,000  Level Indianapolis Center
Wed 07:51:54 AM 37.7544 -84.3972 North 447 514 36,000  Level Indianapolis Center
Wed 07:52:56 AM 37.8631 -84.4389 343° North 412 474 36,000  Level Indianapolis Center
Wed 07:53:57 AM 37.9717 -84.4878 340° North 412 474 36,000 -98 Level Indianapolis Center
Wed 07:54:59 AM 38.0811 -84.5431 338° Northwest 421 484 35,800 -537 Descending Indianapolis Center
Wed 07:56:00 AM 38.1972 -84.5914 342° North 434 499 34,900 -878 Descending Indianapolis Center
Wed 07:57:02 AM 38.3106 -84.6439 340° North 433 498 34,000 -439 Descending Indianapolis Center
Wed 07:58:03 AM 38.4422 -84.7033 341° North 430 495 34,000  Level Indianapolis Center
Wed 07:59:04 AM 38.5553 -84.7564 340° North 431 496 34,000  Level Indianapolis Center
Wed 08:00:06 AM 38.6578 -84.8044 340° North 431 496 34,000  Level Indianapolis Center
Wed 08:01:07 AM 38.7708 -84.8581 340° North 431 496 34,000  Level Indianapolis Center
Wed 08:02:09 AM 38.8875 -84.9108 341° North 439 505 34,000 -146 Level Indianapolis Center
Wed 08:03:10 AM 39.0203 -84.9733 340° North 434 499 33,700 -585 Descending Indianapolis Center
Wed 08:04:12 AM 39.1336 -85.0278 340° North 430 495 32,800 -1,171 Descending Indianapolis Center
Wed 08:05:13 AM 39.2489 -85.0803 341° North 436 502 31,300 -1,426 Descending Indianapolis Center
Wed 08:06:14 AM 39.3619 -85.1339 340° North 433 498 29,900 -1,512 Descending Indianapolis Center
Wed 08:07:16 AM 39.4761 -85.1875 340° North 434 499 28,200 -927 Descending Indianapolis Center
Wed 08:08:17 AM 39.5939 -85.2444 340° North 446 513 28,000 -98 Descending Indianapolis Center
Wed 08:09:19 AM 39.7131 -85.3003 340° North 453 521 28,000 -341 Level Indianapolis Center
Wed 08:10:20 AM 39.8342 -85.3586 340° North 460 529 27,300 -927 Descending Indianapolis Center
Wed 08:11:22 AM 39.9761 -85.4278 340° North 464 534 26,100 -634 Descending Indianapolis Center
Wed 08:12:23 AM 40.1011 -85.4875 340° North 473 544 26,000 -61 Descending Indianapolis Center
Wed 08:13:01 AM 40.1614 -85.5167 340° North 471 542 26,000 -360 Level Chicago Center
Wed 08:14:03 AM 40.3025 -85.5836 340° North 464 534 25,400 -823 Descending Chicago Center
Wed 08:15:05 AM 40.4267 -85.6450 339° North 472 543 24,300 -677 Descending Chicago Center
Wed 08:16:07 AM 40.5522 -85.7017 341° North 476 548 24,000 -242 Descending Chicago Center
Wed 08:17:09 AM 40.6767 -85.7550 342° North 469 540 23,800 -532 Descending Chicago Center
Wed 08:18:11 AM 40.7897 -85.8053 341° North 467 537 22,900 -1,073 Descending Chicago Center
Wed 08:19:12 AM 40.9269 -85.8811 337° Northwest 433 498 21,600 -1,122 Descending Chicago Center
Wed 08:20:14 AM 41.0031 -85.9842 314° West 392 451 20,600 -1,000 Descending Chicago Center
Wed 08:22:18 AM 41.1467 -86.1972 312° West 386 444 18,500 -1,000 Descending Chicago Center
Wed 08:23:20 AM 41.2172 -86.3019 312° West 381 438 17,500 -968 Descending Chicago Center
Wed 08:24:22 AM 41.2850 -86.4058 311° West 373 429 16,500 -1,016 Descending Chicago Center
Wed 08:25:24 AM 41.3522 -86.5053 312° West 364 419 15,400 -1,306 Descending Chicago Center
Wed 08:26:26 AM 41.4275 -86.6178 312° West 336 387 13,800 -1,597 Descending Chicago Center
Wed 08:27:28 AM 41.4811 -86.7006 311° West 303 349 12,100 -871 Descending Chicago Center
Wed 08:28:30 AM 41.5442 -86.7786 317° Northwest 292 336 12,000 -49 Descending Chicago Center
Wed 08:29:31 AM 41.6311 -86.7914 354° North 319 367 12,000  Level Chicago Center
Wed 08:30:33 AM 41.7169 -86.8028 354° North 314 361 12,000  Level Chicago Center
Wed 08:31:35 AM 41.8019 -86.8158 353° North 308 354 12,000 -97 Level Chicago Center
Wed 08:32:37 AM 41.8764 -86.8492 342° North 295 339 11,800 -774 Descending Chicago Center
Wed 08:33:39 AM 41.9036 -86.9472 290° West 290 334 10,400 -1,355 Descending Chicago Center
Wed 08:34:41 AM 41.9317 -87.0614 288° West 272 313 9,000 -677 Descending Chicago Center
Wed 08:35:43 AM 41.9522 -87.1539 287° West 263 303 9,000 -145 Level Chicago Center
Wed 08:36:45 AM 41.9706 -87.2483 285° West 264 304 8,700 -726 Descending Chicago Center
Wed 08:37:47 AM 41.9683 -87.3436 268° West 255 293 7,500 -873 Descending Chicago Center
Wed 08:38:35 AM 41.9667 -87.4333 269° West 250 288 7,100 -606 Descending Chicago TRACON
Wed 08:39:36 AM 41.9667 -87.5167 270° West 221 254 6,400 -1,041 Descending Chicago TRACON
Wed 08:40:36 AM 41.9667 -87.6000 270° West 217 250 5,000 -1,200 Descending Chicago TRACON
Wed 08:41:36 AM 41.9667 -87.6667 270° West 190 219 4,000 -1,050 Descending Chicago TRACON
Wed 08:42:36 AM 41.9667 -87.7333 270° West 189 217 2,900 -1,050 Descending Chicago TRACON
Wed 08:43:36 AM 41.9667 -87.8000 270° West 164 189 1,900 -850 Descending Chicago TRACON
Wed 08:44:36 AM 41.9667 -87.8500 270° West 138 159 1,200 -700 Descending Chicago TRACON
Wed 08:46:00 AM 41.9667 -87.9000 270° West  Level FlightAware Approximate

Login

Don't have an account? Register now (free) for customized features, flight alerts, and more!